sensor_id;sensor_type;location;lat;lon;timestamp;P1;durP1;ratioP1;P2;durP2;ratioP2
61397;SDS011;47267;48.130;-2.040;2023-06-22T00:01:57;4.50;;;2.53;;
61397;SDS011;47267;48.130;-2.040;2023-06-22T00:04:24;4.00;;;2.25;;
61397;SDS011;47267;48.130;-2.040;2023-06-22T00:06:50;3.85;;;2.28;;
61397;SDS011;47267;48.130;-2.040;2023-06-22T00:09:16;3.10;;;2.33;;
61397;SDS011;47267;48.130;-2.040;2023-06-22T00:11:41;3.05;;;2.40;;
61397;SDS011;47267;48.130;-2.040;2023-06-22T00:14:07;3.38;;;2.30;;
61397;SDS011;47267;48.130;-2.040;2023-06-22T00:16:33;2.70;;;2.20;;
61397;SDS011;47267;48.130;-2.040;2023-06-22T00:18:59;2.42;;;1.95;;
61397;SDS011;47267;48.130;-2.040;2023-06-22T00:21:26;2.42;;;2.22;;
61397;SDS011;47267;48.130;-2.040;2023-06-22T00:23:52;2.67;;;2.28;;
61397;SDS011;47267;48.130;-2.040;2023-06-22T00:26:18;3.13;;;2.10;;
61397;SDS011;47267;48.130;-2.040;2023-06-22T00:28:44;4.35;;;2.40;;
61397;SDS011;47267;48.130;-2.040;2023-06-22T00:31:09;3.33;;;2.38;;
61397;SDS011;47267;48.130;-2.040;2023-06-22T00:33:35;2.80;;;2.38;;
61397;SDS011;47267;48.130;-2.040;2023-06-22T00:36:01;2.85;;;2.10;;
61397;SDS011;47267;48.130;-2.040;2023-06-22T00:38:28;3.40;;;2.13;;
61397;SDS011;47267;48.130;-2.040;2023-06-22T00:40:53;2.55;;;1.98;;
61397;SDS011;47267;48.130;-2.040;2023-06-22T00:43:19;2.80;;;2.30;;
61397;SDS011;47267;48.130;-2.040;2023-06-22T00:45:45;2.83;;;2.25;;
61397;SDS011;47267;48.130;-2.040;2023-06-22T00:48:12;2.72;;;2.30;;
61397;SDS011;47267;48.130;-2.040;2023-06-22T00:50:39;2.63;;;2.17;;
61397;SDS011;47267;48.130;-2.040;2023-06-22T00:53:05;2.92;;;2.20;;
61397;SDS011;47267;48.130;-2.040;2023-06-22T00:55:42;2.65;;;2.00;;
61397;SDS011;47267;48.130;-2.040;2023-06-22T00:58:11;3.35;;;2.17;;
61397;SDS011;47267;48.130;-2.040;2023-06-22T01:00:38;2.75;;;2.05;;
61397;SDS011;47267;48.130;-2.040;2023-06-22T01:03:06;2.67;;;2.10;;
61397;SDS011;47267;48.130;-2.040;2023-06-22T01:05:35;2.88;;;2.33;;
61397;SDS011;47267;48.130;-2.040;2023-06-22T01:10:55;2.45;;;2.20;;
61397;SDS011;47267;48.130;-2.040;2023-06-22T01:16:48;2.47;;;2.17;;
61397;SDS011;47267;48.130;-2.040;2023-06-22T01:22:04;3.55;;;2.30;;
61397;SDS011;47267;48.130;-2.040;2023-06-22T01:28:03;2.70;;;2.15;;
61397;SDS011;47267;48.130;-2.040;2023-06-22T01:30:30;4.38;;;2.50;;
61397;SDS011;47267;48.130;-2.040;2023-06-22T01:32:59;2.55;;;1.98;;
61397;SDS011;47267;48.130;-2.040;2023-06-22T01:35:28;2.88;;;1.95;;
61397;SDS011;47267;48.130;-2.040;2023-06-22T01:37:54;2.45;;;2.00;;
61397;SDS011;47267;48.130;-2.040;2023-06-22T01:40:20;3.30;;;2.13;;
61397;SDS011;47267;48.130;-2.040;2023-06-22T01:42:48;3.15;;;2.30;;
61397;SDS011;47267;48.130;-2.040;2023-06-22T01:45:15;2.42;;;2.15;;
61397;SDS011;47267;48.130;-2.040;2023-06-22T01:47:41;3.30;;;2.20;;
61397;SDS011;47267;48.130;-2.040;2023-06-22T01:50:07;2.42;;;1.92;;
61397;SDS011;47267;48.130;-2.040;2023-06-22T01:52:34;2.33;;;2.00;;
61397;SDS011;47267;48.130;-2.040;2023-06-22T01:55:00;2.33;;;1.90;;
61397;SDS011;47267;48.130;-2.040;2023-06-22T01:57:26;4.05;;;2.30;;
61397;SDS011;47267;48.130;-2.040;2023-06-22T02:03:13;3.08;;;2.28;;
61397;SDS011;47267;48.130;-2.040;2023-06-22T02:05:22;2.90;;;2.20;;
61397;SDS011;47267;48.130;-2.040;2023-06-22T02:08:07;2.60;;;2.20;;
61397;SDS011;47267;48.130;-2.040;2023-06-22T02:10:37;2.85;;;2.10;;
61397;SDS011;47267;48.130;-2.040;2023-06-22T02:13:06;2.70;;;2.20;;
61397;SDS011;47267;48.130;-2.040;2023-06-22T02:15:32;2.53;;;2.10;;
61397;SDS011;47267;48.130;-2.040;2023-06-22T02:17:59;2.90;;;2.38;;
61397;SDS011;47267;48.130;-2.040;2023-06-22T02:20:25;2.90;;;2.33;;
61397;SDS011;47267;48.130;-2.040;2023-06-22T02:22:50;3.50;;;2.40;;
61397;SDS011;47267;48.130;-2.040;2023-06-22T02:25:16;2.88;;;2.17;;
61397;SDS011;47267;48.130;-2.040;2023-06-22T02:27:42;3.58;;;2.50;;
61397;SDS011;47267;48.130;-2.040;2023-06-22T02:30:08;2.95;;;1.98;;
61397;SDS011;47267;48.130;-2.040;2023-06-22T02:32:34;3.08;;;2.00;;
61397;SDS011;47267;48.130;-2.040;2023-06-22T02:35:01;4.35;;;2.40;;
61397;SDS011;47267;48.130;-2.040;2023-06-22T02:37:30;3.10;;;2.35;;
61397;SDS011;47267;48.130;-2.040;2023-06-22T02:39:56;3.10;;;1.95;;
61397;SDS011;47267;48.130;-2.040;2023-06-22T02:42:22;2.63;;;2.17;;
61397;SDS011;47267;48.130;-2.040;2023-06-22T02:44:48;2.30;;;1.98;;
61397;SDS011;47267;48.130;-2.040;2023-06-22T02:47:13;3.08;;;2.15;;
61397;SDS011;47267;48.130;-2.040;2023-06-22T02:49:39;3.33;;;2.13;;
61397;SDS011;47267;48.130;-2.040;2023-06-22T02:52:05;2.85;;;2.15;;
61397;SDS011;47267;48.130;-2.040;2023-06-22T02:54:31;2.58;;;2.10;;
61397;SDS011;47267;48.130;-2.040;2023-06-22T02:56:58;2.67;;;2.22;;
61397;SDS011;47267;48.130;-2.040;2023-06-22T02:59:23;2.90;;;2.40;;
61397;SDS011;47267;48.130;-2.040;2023-06-22T03:01:49;2.55;;;2.13;;
61397;SDS011;47267;48.130;-2.040;2023-06-22T03:04:15;2.25;;;2.05;;
61397;SDS011;47267;48.130;-2.040;2023-06-22T03:06:41;2.92;;;2.25;;
61397;SDS011;47267;48.130;-2.040;2023-06-22T03:09:07;3.05;;;2.10;;
61397;SDS011;47267;48.130;-2.040;2023-06-22T03:11:33;2.58;;;2.10;;
61397;SDS011;47267;48.130;-2.040;2023-06-22T03:14:02;3.10;;;2.28;;
61397;SDS011;47267;48.130;-2.040;2023-06-22T03:16:28;2.30;;;2.10;;
61397;SDS011;47267;48.130;-2.040;2023-06-22T03:18:54;2.45;;;2.20;;
61397;SDS011;47267;48.130;-2.040;2023-06-22T03:21:21;3.55;;;2.70;;
61397;SDS011;47267;48.130;-2.040;2023-06-22T03:23:47;2.78;;;2.10;;
61397;SDS011;47267;48.130;-2.040;2023-06-22T03:26:16;2.85;;;2.25;;
61397;SDS011;47267;48.130;-2.040;2023-06-22T03:28:42;3.05;;;1.88;;
61397;SDS011;47267;48.130;-2.040;2023-06-22T03:31:08;2.50;;;2.00;;
61397;SDS011;47267;48.130;-2.040;2023-06-22T03:33:34;3.03;;;2.40;;
61397;SDS011;47267;48.130;-2.040;2023-06-22T03:35:59;4.60;;;2.40;;
61397;SDS011;47267;48.130;-2.040;2023-06-22T03:38:25;3.53;;;2.60;;
61397;SDS011;47267;48.130;-2.040;2023-06-22T03:40:51;3.42;;;2.03;;
61397;SDS011;47267;48.130;-2.040;2023-06-22T03:43:16;2.65;;;2.10;;
61397;SDS011;47267;48.130;-2.040;2023-06-22T03:45:42;3.05;;;2.47;;
61397;SDS011;47267;48.130;-2.040;2023-06-22T03:48:10;2.25;;;2.05;;
61397;SDS011;47267;48.130;-2.040;2023-06-22T03:50:36;2.55;;;1.88;;
61397;SDS011;47267;48.130;-2.040;2023-06-22T03:53:02;2.38;;;1.85;;
61397;SDS011;47267;48.130;-2.040;2023-06-22T03:55:28;3.40;;;2.22;;
61397;SDS011;47267;48.130;-2.040;2023-06-22T03:57:53;2.30;;;2.08;;
61397;SDS011;47267;48.130;-2.040;2023-06-22T04:00:21;2.28;;;1.90;;
61397;SDS011;47267;48.130;-2.040;2023-06-22T04:02:48;2.70;;;2.20;;
61397;SDS011;47267;48.130;-2.040;2023-06-22T04:05:14;3.10;;;2.20;;
61397;SDS011;47267;48.130;-2.040;2023-06-22T04:07:39;2.88;;;2.30;;
61397;SDS011;47267;48.130;-2.040;2023-06-22T04:10:05;3.40;;;2.10;;
61397;SDS011;47267;48.130;-2.040;2023-06-22T04:12:31;3.00;;;2.20;;
61397;SDS011;47267;48.130;-2.040;2023-06-22T04:14:57;2.63;;;1.90;;
61397;SDS011;47267;48.130;-2.040;2023-06-22T04:17:23;2.90;;;2.08;;
61397;SDS011;47267;48.130;-2.040;2023-06-22T04:19:50;2.13;;;1.90;;
61397;SDS011;47267;48.130;-2.040;2023-06-22T04:22:16;3.08;;;2.05;;
61397;SDS011;47267;48.130;-2.040;2023-06-22T04:24:42;3.58;;;2.00;;
61397;SDS011;47267;48.130;-2.040;2023-06-22T04:27:07;2.40;;;2.13;;
61397;SDS011;47267;48.130;-2.040;2023-06-22T04:29:33;2.58;;;2.20;;
61397;SDS011;47267;48.130;-2.040;2023-06-22T04:31:59;2.47;;;2.20;;
61397;SDS011;47267;48.130;-2.040;2023-06-22T04:34:28;2.42;;;2.05;;
61397;SDS011;47267;48.130;-2.040;2023-06-22T04:36:54;2.33;;;2.00;;
61397;SDS011;47267;48.130;-2.040;2023-06-22T04:39:20;2.53;;;1.92;;
61397;SDS011;47267;48.130;-2.040;2023-06-22T04:41:47;3.17;;;2.30;;
61397;SDS011;47267;48.130;-2.040;2023-06-22T04:44:16;2.40;;;2.00;;
61397;SDS011;47267;48.130;-2.040;2023-06-22T04:47:07;3.42;;;2.40;;
61397;SDS011;47267;48.130;-2.040;2023-06-22T04:49:34;3.72;;;2.03;;
61397;SDS011;47267;48.130;-2.040;2023-06-22T04:52:08;2.63;;;2.13;;
61397;SDS011;47267;48.130;-2.040;2023-06-22T04:54:35;2.20;;;1.88;;
61397;SDS011;47267;48.130;-2.040;2023-06-22T04:57:03;3.08;;;2.13;;
61397;SDS011;47267;48.130;-2.040;2023-06-22T04:59:30;2.13;;;1.90;;
61397;SDS011;47267;48.130;-2.040;2023-06-22T05:01:56;2.95;;;2.13;;
61397;SDS011;47267;48.130;-2.040;2023-06-22T05:04:24;2.97;;;2.03;;
61397;SDS011;47267;48.130;-2.040;2023-06-22T05:06:51;2.45;;;2.00;;
61397;SDS011;47267;48.130;-2.040;2023-06-22T05:09:17;2.35;;;1.90;;
61397;SDS011;47267;48.130;-2.040;2023-06-22T05:11:43;3.75;;;2.22;;
61397;SDS011;47267;48.130;-2.040;2023-06-22T05:14:09;2.47;;;2.10;;
61397;SDS011;47267;48.130;-2.040;2023-06-22T05:16:36;3.45;;;2.40;;
61397;SDS011;47267;48.130;-2.040;2023-06-22T05:19:02;3.28;;;2.10;;
61397;SDS011;47267;48.130;-2.040;2023-06-22T05:21:28;3.35;;;1.95;;
61397;SDS011;47267;48.130;-2.040;2023-06-22T05:23:54;3.22;;;2.33;;
61397;SDS011;47267;48.130;-2.040;2023-06-22T05:26:24;3.17;;;2.28;;
61397;SDS011;47267;48.130;-2.040;2023-06-22T05:28:51;2.60;;;2.10;;
61397;SDS011;47267;48.130;-2.040;2023-06-22T05:31:17;3.42;;;2.50;;
61397;SDS011;47267;48.130;-2.040;2023-06-22T05:33:44;4.22;;;2.47;;
61397;SDS011;47267;48.130;-2.040;2023-06-22T05:36:11;3.58;;;2.20;;
61397;SDS011;47267;48.130;-2.040;2023-06-22T05:38:37;3.58;;;2.50;;
61397;SDS011;47267;48.130;-2.040;2023-06-22T05:41:03;2.72;;;2.20;;
61397;SDS011;47267;48.130;-2.040;2023-06-22T05:43:29;2.60;;;2.33;;
61397;SDS011;47267;48.130;-2.040;2023-06-22T05:45:55;3.70;;;2.40;;
61397;SDS011;47267;48.130;-2.040;2023-06-22T05:48:21;7.50;;;2.50;;
61397;SDS011;47267;48.130;-2.040;2023-06-22T05:50:47;2.88;;;2.33;;
61397;SDS011;47267;48.130;-2.040;2023-06-22T05:53:12;3.97;;;2.13;;
61397;SDS011;47267;48.130;-2.040;2023-06-22T05:55:38;3.80;;;2.40;;
61397;SDS011;47267;48.130;-2.040;2023-06-22T05:58:04;4.22;;;2.33;;
61397;SDS011;47267;48.130;-2.040;2023-06-22T06:00:30;2.88;;;2.28;;
61397;SDS011;47267;48.130;-2.040;2023-06-22T06:02:56;3.38;;;2.20;;
61397;SDS011;47267;48.130;-2.040;2023-06-22T06:05:21;4.22;;;2.30;;
61397;SDS011;47267;48.130;-2.040;2023-06-22T06:07:48;2.97;;;2.40;;
61397;SDS011;47267;48.130;-2.040;2023-06-22T06:10:14;3.38;;;2.05;;
61397;SDS011;47267;48.130;-2.040;2023-06-22T06:12:40;4.25;;;2.38;;
61397;SDS011;47267;48.130;-2.040;2023-06-22T06:15:06;3.15;;;2.22;;
61397;SDS011;47267;48.130;-2.040;2023-06-22T06:17:32;3.30;;;2.33;;
61397;SDS011;47267;48.130;-2.040;2023-06-22T06:19:58;3.60;;;2.03;;
61397;SDS011;47267;48.130;-2.040;2023-06-22T06:22:24;3.15;;;1.98;;
61397;SDS011;47267;48.130;-2.040;2023-06-22T06:24:50;3.28;;;2.03;;
61397;SDS011;47267;48.130;-2.040;2023-06-22T06:27:16;3.83;;;2.13;;
61397;SDS011;47267;48.130;-2.040;2023-06-22T06:29:44;3.13;;;2.70;;
61397;SDS011;47267;48.130;-2.040;2023-06-22T06:32:13;3.25;;;2.00;;
61397;SDS011;47267;48.130;-2.040;2023-06-22T06:34:39;2.55;;;2.15;;
61397;SDS011;47267;48.130;-2.040;2023-06-22T06:37:05;3.13;;;2.20;;
61397;SDS011;47267;48.130;-2.040;2023-06-22T06:39:31;4.72;;;1.88;;
61397;SDS011;47267;48.130;-2.040;2023-06-22T06:41:57;4.25;;;2.55;;
61397;SDS011;47267;48.130;-2.040;2023-06-22T06:44:22;3.60;;;2.05;;
61397;SDS011;47267;48.130;-2.040;2023-06-22T06:46:48;5.00;;;2.38;;
61397;SDS011;47267;48.130;-2.040;2023-06-22T06:49:14;4.30;;;2.35;;
61397;SDS011;47267;48.130;-2.040;2023-06-22T06:51:39;4.85;;;2.58;;
61397;SDS011;47267;48.130;-2.040;2023-06-22T06:54:05;4.30;;;2.40;;
61397;SDS011;47267;48.130;-2.040;2023-06-22T06:56:31;4.20;;;2.47;;
61397;SDS011;47267;48.130;-2.040;2023-06-22T06:58:58;2.67;;;1.90;;
61397;SDS011;47267;48.130;-2.040;2023-06-22T07:01:23;4.72;;;2.50;;
61397;SDS011;47267;48.130;-2.040;2023-06-22T07:03:49;3.22;;;2.00;;
61397;SDS011;47267;48.130;-2.040;2023-06-22T07:06:15;3.70;;;2.25;;
61397;SDS011;47267;48.130;-2.040;2023-06-22T07:08:41;4.63;;;2.15;;
61397;SDS011;47267;48.130;-2.040;2023-06-22T07:11:07;3.05;;;2.30;;
61397;SDS011;47267;48.130;-2.040;2023-06-22T07:13:33;5.30;;;2.42;;
61397;SDS011;47267;48.130;-2.040;2023-06-22T07:15:59;3.40;;;1.92;;
61397;SDS011;47267;48.130;-2.040;2023-06-22T07:18:25;3.53;;;2.28;;
61397;SDS011;47267;48.130;-2.040;2023-06-22T07:20:51;2.75;;;2.03;;
61397;SDS011;47267;48.130;-2.040;2023-06-22T07:23:17;3.85;;;2.30;;
61397;SDS011;47267;48.130;-2.040;2023-06-22T07:25:43;3.30;;;2.08;;
61397;SDS011;47267;48.130;-2.040;2023-06-22T07:28:08;3.40;;;2.47;;
61397;SDS011;47267;48.130;-2.040;2023-06-22T07:30:34;4.85;;;2.58;;
61397;SDS011;47267;48.130;-2.040;2023-06-22T07:33:00;3.25;;;2.35;;
61397;SDS011;47267;48.130;-2.040;2023-06-22T07:35:29;2.83;;;1.95;;
61397;SDS011;47267;48.130;-2.040;2023-06-22T07:37:55;7.07;;;2.75;;
61397;SDS011;47267;48.130;-2.040;2023-06-22T07:40:21;3.80;;;2.10;;
61397;SDS011;47267;48.130;-2.040;2023-06-22T07:42:47;4.82;;;2.72;;
61397;SDS011;47267;48.130;-2.040;2023-06-22T07:45:17;4.53;;;3.20;;
61397;SDS011;47267;48.130;-2.040;2023-06-22T07:47:43;7.07;;;3.22;;
61397;SDS011;47267;48.130;-2.040;2023-06-22T07:50:09;6.07;;;3.10;;
61397;SDS011;47267;48.130;-2.040;2023-06-22T07:52:35;5.68;;;3.03;;
61397;SDS011;47267;48.130;-2.040;2023-06-22T07:55:01;6.25;;;3.08;;
61397;SDS011;47267;48.130;-2.040;2023-06-22T07:57:27;5.10;;;2.58;;
61397;SDS011;47267;48.130;-2.040;2023-06-22T08:00:05;5.57;;;3.05;;
61397;SDS011;47267;48.130;-2.040;2023-06-22T08:02:41;5.00;;;2.80;;
61397;SDS011;47267;48.130;-2.040;2023-06-22T08:05:09;4.82;;;3.10;;
61397;SDS011;47267;48.130;-2.040;2023-06-22T08:07:36;6.97;;;3.40;;
61397;SDS011;47267;48.130;-2.040;2023-06-22T08:10:04;7.82;;;2.92;;
61397;SDS011;47267;48.130;-2.040;2023-06-22T08:12:30;6.15;;;3.00;;
61397;SDS011;47267;48.130;-2.040;2023-06-22T08:14:56;7.63;;;3.05;;
61397;SDS011;47267;48.130;-2.040;2023-06-22T08:17:23;6.55;;;2.92;;
61397;SDS011;47267;48.130;-2.040;2023-06-22T08:19:49;7.13;;;2.80;;
61397;SDS011;47267;48.130;-2.040;2023-06-22T08:22:15;8.00;;;3.10;;
61397;SDS011;47267;48.130;-2.040;2023-06-22T08:24:42;6.80;;;2.75;;
61397;SDS011;47267;48.130;-2.040;2023-06-22T08:27:09;5.88;;;2.97;;
61397;SDS011;47267;48.130;-2.040;2023-06-22T08:29:38;5.30;;;3.00;;
61397;SDS011;47267;48.130;-2.040;2023-06-22T08:32:04;5.50;;;3.22;;
61397;SDS011;47267;48.130;-2.040;2023-06-22T08:34:30;3.80;;;2.88;;
61397;SDS011;47267;48.130;-2.040;2023-06-22T08:36:56;5.18;;;3.00;;
61397;SDS011;47267;48.130;-2.040;2023-06-22T08:39:21;5.88;;;3.10;;
61397;SDS011;47267;48.130;-2.040;2023-06-22T08:41:47;4.63;;;2.60;;
61397;SDS011;47267;48.130;-2.040;2023-06-22T08:44:13;5.88;;;3.25;;
61397;SDS011;47267;48.130;-2.040;2023-06-22T08:46:39;5.55;;;2.88;;
61397;SDS011;47267;48.130;-2.040;2023-06-22T08:49:06;5.38;;;2.92;;
61397;SDS011;47267;48.130;-2.040;2023-06-22T08:51:32;5.20;;;3.10;;
61397;SDS011;47267;48.130;-2.040;2023-06-22T08:53:57;4.32;;;2.65;;
61397;SDS011;47267;48.130;-2.040;2023-06-22T08:56:23;5.88;;;3.00;;
61397;SDS011;47267;48.130;-2.040;2023-06-22T08:58:49;6.35;;;3.40;;
61397;SDS011;47267;48.130;-2.040;2023-06-22T09:01:14;4.55;;;3.00;;
61397;SDS011;47267;48.130;-2.040;2023-06-22T09:03:40;4.93;;;3.20;;
61397;SDS011;47267;48.130;-2.040;2023-06-22T09:06:06;6.90;;;3.25;;
61397;SDS011;47267;48.130;-2.040;2023-06-22T09:08:34;5.45;;;3.20;;
61397;SDS011;47267;48.130;-2.040;2023-06-22T09:11:00;4.88;;;3.45;;
61397;SDS011;47267;48.130;-2.040;2023-06-22T09:13:26;4.90;;;2.83;;
61397;SDS011;47267;48.130;-2.040;2023-06-22T09:15:53;7.45;;;3.67;;
61397;SDS011;47267;48.130;-2.040;2023-06-22T09:18:18;5.32;;;2.78;;
61397;SDS011;47267;48.130;-2.040;2023-06-22T09:20:44;4.82;;;3.33;;
61397;SDS011;47267;48.130;-2.040;2023-06-22T09:23:10;4.65;;;2.78;;
61397;SDS011;47267;48.130;-2.040;2023-06-22T09:25:36;5.32;;;3.20;;
61397;SDS011;47267;48.130;-2.040;2023-06-22T09:28:02;5.95;;;3.20;;
61397;SDS011;47267;48.130;-2.040;2023-06-22T09:30:27;7.38;;;3.17;;
61397;SDS011;47267;48.130;-2.040;2023-06-22T09:32:53;5.32;;;3.28;;
61397;SDS011;47267;48.130;-2.040;2023-06-22T09:35:19;6.15;;;3.40;;
61397;SDS011;47267;48.130;-2.040;2023-06-22T09:37:45;7.47;;;3.55;;
61397;SDS011;47267;48.130;-2.040;2023-06-22T09:40:11;7.65;;;3.53;;
61397;SDS011;47267;48.130;-2.040;2023-06-22T09:42:38;8.20;;;3.70;;
61397;SDS011;47267;48.130;-2.040;2023-06-22T09:45:04;6.05;;;3.25;;
61397;SDS011;47267;48.130;-2.040;2023-06-22T09:47:30;5.05;;;3.10;;
61397;SDS011;47267;48.130;-2.040;2023-06-22T09:49:56;5.38;;;3.65;;
61397;SDS011;47267;48.130;-2.040;2023-06-22T09:52:24;5.28;;;3.30;;
61397;SDS011;47267;48.130;-2.040;2023-06-22T09:54:50;7.35;;;3.30;;
61397;SDS011;47267;48.130;-2.040;2023-06-22T09:57:16;6.57;;;3.15;;
61397;SDS011;47267;48.130;-2.040;2023-06-22T09:59:42;5.95;;;3.28;;
61397;SDS011;47267;48.130;-2.040;2023-06-22T10:02:07;4.63;;;3.10;;
61397;SDS011;47267;48.130;-2.040;2023-06-22T10:04:34;6.13;;;3.35;;
61397;SDS011;47267;48.130;-2.040;2023-06-22T10:07:00;7.05;;;3.30;;
61397;SDS011;47267;48.130;-2.040;2023-06-22T10:09:27;6.03;;;3.45;;
61397;SDS011;47267;48.130;-2.040;2023-06-22T10:11:52;6.80;;;3.10;;
61397;SDS011;47267;48.130;-2.040;2023-06-22T10:14:18;4.05;;;2.97;;
61397;SDS011;47267;48.130;-2.040;2023-06-22T10:16:44;4.93;;;3.15;;
61397;SDS011;47267;48.130;-2.040;2023-06-22T10:19:10;6.60;;;3.10;;
61397;SDS011;47267;48.130;-2.040;2023-06-22T10:21:36;5.07;;;3.10;;
61397;SDS011;47267;48.130;-2.040;2023-06-22T10:24:01;5.60;;;3.20;;
61397;SDS011;47267;48.130;-2.040;2023-06-22T10:26:34;3.78;;;3.22;;
61397;SDS011;47267;48.130;-2.040;2023-06-22T10:29:01;4.00;;;3.10;;
61397;SDS011;47267;48.130;-2.040;2023-06-22T10:31:27;4.88;;;3.30;;
61397;SDS011;47267;48.130;-2.040;2023-06-22T10:33:53;5.63;;;3.30;;
61397;SDS011;47267;48.130;-2.040;2023-06-22T10:36:19;6.20;;;3.08;;
61397;SDS011;47267;48.130;-2.040;2023-06-22T10:38:45;5.97;;;3.30;;
61397;SDS011;47267;48.130;-2.040;2023-06-22T10:41:12;6.28;;;3.40;;
61397;SDS011;47267;48.130;-2.040;2023-06-22T10:43:38;8.70;;;4.07;;
61397;SDS011;47267;48.130;-2.040;2023-06-22T10:46:03;7.70;;;3.78;;
61397;SDS011;47267;48.130;-2.040;2023-06-22T10:48:29;5.93;;;3.58;;
61397;SDS011;47267;48.130;-2.040;2023-06-22T10:50:55;4.55;;;3.13;;
61397;SDS011;47267;48.130;-2.040;2023-06-22T10:53:21;8.07;;;3.47;;
61397;SDS011;47267;48.130;-2.040;2023-06-22T10:55:47;3.85;;;2.85;;
61397;SDS011;47267;48.130;-2.040;2023-06-22T10:58:12;6.10;;;3.25;;
61397;SDS011;47267;48.130;-2.040;2023-06-22T11:00:38;6.70;;;3.40;;
61397;SDS011;47267;48.130;-2.040;2023-06-22T11:03:04;5.82;;;3.58;;
61397;SDS011;47267;48.130;-2.040;2023-06-22T11:05:31;5.78;;;3.20;;
61397;SDS011;47267;48.130;-2.040;2023-06-22T11:07:57;7.07;;;3.20;;
61397;SDS011;47267;48.130;-2.040;2023-06-22T11:10:23;6.47;;;3.38;;
61397;SDS011;47267;48.130;-2.040;2023-06-22T11:12:49;3.80;;;3.10;;
61397;SDS011;47267;48.130;-2.040;2023-06-22T11:15:14;5.65;;;3.25;;
61397;SDS011;47267;48.130;-2.040;2023-06-22T11:17:40;4.85;;;3.40;;
61397;SDS011;47267;48.130;-2.040;2023-06-22T11:20:06;4.82;;;2.85;;
61397;SDS011;47267;48.130;-2.040;2023-06-22T11:22:38;4.93;;;3.33;;
61397;SDS011;47267;48.130;-2.040;2023-06-22T11:25:05;6.57;;;3.10;;
61397;SDS011;47267;48.130;-2.040;2023-06-22T11:27:31;4.93;;;3.17;;
61397;SDS011;47267;48.130;-2.040;2023-06-22T11:29:57;4.07;;;2.83;;
61397;SDS011;47267;48.130;-2.040;2023-06-22T11:32:23;6.70;;;3.10;;
61397;SDS011;47267;48.130;-2.040;2023-06-22T11:34:49;6.70;;;3.28;;
61397;SDS011;47267;48.130;-2.040;2023-06-22T11:37:15;4.88;;;3.15;;
61397;SDS011;47267;48.130;-2.040;2023-06-22T11:39:41;3.92;;;2.85;;
61397;SDS011;47267;48.130;-2.040;2023-06-22T11:42:07;4.97;;;2.97;;
61397;SDS011;47267;48.130;-2.040;2023-06-22T11:44:34;4.05;;;3.03;;
61397;SDS011;47267;48.130;-2.040;2023-06-22T11:47:00;4.35;;;2.97;;
61397;SDS011;47267;48.130;-2.040;2023-06-22T11:49:26;6.38;;;3.00;;
61397;SDS011;47267;48.130;-2.040;2023-06-22T11:51:52;7.03;;;3.40;;
61397;SDS011;47267;48.130;-2.040;2023-06-22T11:54:18;5.15;;;3.05;;
61397;SDS011;47267;48.130;-2.040;2023-06-22T11:56:44;4.45;;;3.00;;
61397;SDS011;47267;48.130;-2.040;2023-06-22T11:59:10;6.20;;;3.10;;
61397;SDS011;47267;48.130;-2.040;2023-06-22T12:01:35;4.65;;;2.90;;
61397;SDS011;47267;48.130;-2.040;2023-06-22T12:04:02;4.90;;;2.65;;
61397;SDS011;47267;48.130;-2.040;2023-06-22T12:06:30;4.97;;;3.15;;
61397;SDS011;47267;48.130;-2.040;2023-06-22T12:08:57;4.97;;;2.67;;
61397;SDS011;47267;48.130;-2.040;2023-06-22T12:11:23;6.03;;;3.03;;
61397;SDS011;47267;48.130;-2.040;2023-06-22T12:13:48;4.47;;;3.03;;
61397;SDS011;47267;48.130;-2.040;2023-06-22T12:16:14;4.55;;;3.05;;
61397;SDS011;47267;48.130;-2.040;2023-06-22T12:18:40;4.75;;;2.83;;
61397;SDS011;47267;48.130;-2.040;2023-06-22T12:21:05;3.60;;;2.60;;
61397;SDS011;47267;48.130;-2.040;2023-06-22T12:23:32;4.93;;;2.70;;
61397;SDS011;47267;48.130;-2.040;2023-06-22T12:25:57;6.15;;;3.50;;
61397;SDS011;47267;48.130;-2.040;2023-06-22T12:28:24;4.70;;;3.20;;
61397;SDS011;47267;48.130;-2.040;2023-06-22T12:30:50;5.85;;;2.92;;
61397;SDS011;47267;48.130;-2.040;2023-06-22T12:33:15;5.30;;;3.13;;
61397;SDS011;47267;48.130;-2.040;2023-06-22T12:35:41;4.82;;;3.17;;
61397;SDS011;47267;48.130;-2.040;2023-06-22T12:38:07;3.08;;;2.40;;
61397;SDS011;47267;48.130;-2.040;2023-06-22T12:40:34;4.65;;;2.90;;
61397;SDS011;47267;48.130;-2.040;2023-06-22T12:42:59;4.47;;;2.70;;
61397;SDS011;47267;48.130;-2.040;2023-06-22T12:45:27;3.80;;;2.75;;
61397;SDS011;47267;48.130;-2.040;2023-06-22T12:47:54;3.92;;;2.85;;
61397;SDS011;47267;48.130;-2.040;2023-06-22T12:50:20;4.97;;;2.90;;
61397;SDS011;47267;48.130;-2.040;2023-06-22T12:52:45;5.65;;;2.83;;
61397;SDS011;47267;48.130;-2.040;2023-06-22T12:55:11;5.90;;;3.10;;
61397;SDS011;47267;48.130;-2.040;2023-06-22T12:57:36;5.88;;;2.90;;
61397;SDS011;47267;48.130;-2.040;2023-06-22T13:00:02;4.43;;;2.90;;
61397;SDS011;47267;48.130;-2.040;2023-06-22T13:02:30;4.18;;;2.70;;
61397;SDS011;47267;48.130;-2.040;2023-06-22T13:04:55;5.47;;;3.10;;
61397;SDS011;47267;48.130;-2.040;2023-06-22T13:07:21;4.45;;;2.72;;
61397;SDS011;47267;48.130;-2.040;2023-06-22T13:09:47;3.67;;;2.80;;
61397;SDS011;47267;48.130;-2.040;2023-06-22T13:12:16;4.05;;;2.92;;
61397;SDS011;47267;48.130;-2.040;2023-06-22T13:14:42;3.50;;;3.00;;
61397;SDS011;47267;48.130;-2.040;2023-06-22T13:17:08;4.13;;;2.47;;
61397;SDS011;47267;48.130;-2.040;2023-06-22T13:19:34;6.00;;;2.95;;
61397;SDS011;47267;48.130;-2.040;2023-06-22T13:22:00;3.75;;;2.67;;
61397;SDS011;47267;48.130;-2.040;2023-06-22T13:24:25;6.72;;;2.78;;
61397;SDS011;47267;48.130;-2.040;2023-06-22T13:26:51;4.20;;;2.67;;
61397;SDS011;47267;48.130;-2.040;2023-06-22T13:29:17;3.65;;;2.55;;
61397;SDS011;47267;48.130;-2.040;2023-06-22T13:31:42;4.35;;;2.80;;
61397;SDS011;47267;48.130;-2.040;2023-06-22T13:34:08;3.08;;;2.38;;
61397;SDS011;47267;48.130;-2.040;2023-06-22T13:36:34;3.88;;;2.45;;
61397;SDS011;47267;48.130;-2.040;2023-06-22T13:38:59;4.38;;;2.70;;
61397;SDS011;47267;48.130;-2.040;2023-06-22T13:41:25;3.45;;;2.78;;
61397;SDS011;47267;48.130;-2.040;2023-06-22T13:43:51;3.72;;;2.60;;
61397;SDS011;47267;48.130;-2.040;2023-06-22T13:46:16;4.20;;;2.40;;
61397;SDS011;47267;48.130;-2.040;2023-06-22T13:48:42;4.65;;;2.75;;
61397;SDS011;47267;48.130;-2.040;2023-06-22T13:51:08;2.97;;;2.47;;
61397;SDS011;47267;48.130;-2.040;2023-06-22T13:53:34;2.85;;;2.20;;
61397;SDS011;47267;48.130;-2.040;2023-06-22T13:55:59;3.40;;;2.63;;
61397;SDS011;47267;48.130;-2.040;2023-06-22T13:58:25;4.45;;;2.50;;
61397;SDS011;47267;48.130;-2.040;2023-06-22T14:00:51;3.75;;;2.15;;
61397;SDS011;47267;48.130;-2.040;2023-06-22T14:03:16;4.53;;;2.60;;
61397;SDS011;47267;48.130;-2.040;2023-06-22T14:05:42;3.47;;;2.55;;
61397;SDS011;47267;48.130;-2.040;2023-06-22T14:08:08;5.05;;;2.72;;
61397;SDS011;47267;48.130;-2.040;2023-06-22T14:10:34;2.72;;;2.35;;
61397;SDS011;47267;48.130;-2.040;2023-06-22T14:13:00;3.60;;;2.40;;
61397;SDS011;47267;48.130;-2.040;2023-06-22T14:15:26;4.20;;;2.40;;
61397;SDS011;47267;48.130;-2.040;2023-06-22T14:17:51;2.85;;;2.40;;
61397;SDS011;47267;48.130;-2.040;2023-06-22T14:20:17;4.75;;;2.03;;
61397;SDS011;47267;48.130;-2.040;2023-06-22T14:22:43;3.97;;;2.20;;
61397;SDS011;47267;48.130;-2.040;2023-06-22T14:25:09;2.55;;;2.08;;
61397;SDS011;47267;48.130;-2.040;2023-06-22T14:27:34;3.67;;;2.10;;
61397;SDS011;47267;48.130;-2.040;2023-06-22T14:30:00;3.58;;;2.40;;
61397;SDS011;47267;48.130;-2.040;2023-06-22T14:32:27;3.78;;;2.40;;
61397;SDS011;47267;48.130;-2.040;2023-06-22T14:34:55;2.35;;;2.08;;
61397;SDS011;47267;48.130;-2.040;2023-06-22T14:37:20;3.75;;;2.35;;
61397;SDS011;47267;48.130;-2.040;2023-06-22T14:39:46;2.92;;;2.28;;
61397;SDS011;47267;48.130;-2.040;2023-06-22T14:42:12;3.35;;;2.40;;
61397;SDS011;47267;48.130;-2.040;2023-06-22T14:44:37;4.00;;;2.72;;